createdAt,value
2022-12-31T00:00:08.591Z,20.47
2022-12-31T00:02:36.060Z,20.86
2022-12-31T00:05:03.502Z,20.69
2022-12-31T00:07:30.401Z,21.01
2022-12-31T00:09:56.919Z,20.67
2022-12-31T00:12:23.533Z,19.98
2022-12-31T00:14:50.417Z,19.83
2022-12-31T00:17:16.919Z,20.09
2022-12-31T00:19:43.699Z,20.30
2022-12-31T00:22:10.549Z,20.23
2022-12-31T00:24:37.049Z,20.34
2022-12-31T00:27:03.583Z,20.20
2022-12-31T00:29:30.511Z,20.31
2022-12-31T00:31:57.017Z,20.50
2022-12-31T00:34:24.033Z,20.65
2022-12-31T00:36:50.569Z,20.46
2022-12-31T00:39:17.058Z,20.25
2022-12-31T00:41:44.145Z,20.62
2022-12-31T00:44:11.760Z,20.69
2022-12-31T00:49:04.464Z,20.61
2022-12-31T00:51:31.276Z,20.55
2022-12-31T00:53:58.388Z,20.13
2022-12-31T00:56:28.149Z,20.66
2022-12-31T00:58:54.960Z,20.65
2022-12-31T01:01:27.034Z,20.89
2022-12-31T01:03:57.961Z,20.67
2022-12-31T01:06:24.660Z,20.44
2022-12-31T01:08:52.124Z,21.07
2022-12-31T01:11:19.715Z,20.96
2022-12-31T01:13:47.590Z,20.53
2022-12-31T01:16:15.951Z,20.67
2022-12-31T01:18:42.512Z,21.08
2022-12-31T01:21:11.120Z,20.84
2022-12-31T01:23:37.792Z,21.24
2022-12-31T01:26:07.250Z,21.29
2022-12-31T01:28:34.226Z,21.04
2022-12-31T01:31:07.257Z,20.57
2022-12-31T01:33:33.978Z,21.03
2022-12-31T01:36:09.790Z,20.91
2022-12-31T01:38:36.992Z,21.30
2022-12-31T01:41:04.503Z,21.63
2022-12-31T01:44:12.726Z,21.35
2022-12-31T01:46:56.295Z,21.53
2022-12-31T01:49:36.060Z,20.58
2022-12-31T01:52:30.610Z,21.00
2022-12-31T01:55:14.979Z,20.79
2022-12-31T01:57:44.136Z,20.53
2022-12-31T02:00:11.357Z,21.03
2022-12-31T02:02:37.940Z,20.74
2022-12-31T02:05:12.766Z,21.00
2022-12-31T02:07:39.617Z,21.24
2022-12-31T02:10:06.340Z,20.84
2022-12-31T02:12:32.906Z,21.10
2022-12-31T02:14:59.757Z,20.84
2022-12-31T02:17:38.344Z,20.88
2022-12-31T02:20:20.936Z,20.91
2022-12-31T02:23:06.338Z,20.72
2022-12-31T02:25:57.659Z,20.69
2022-12-31T02:28:46.112Z,20.97
2022-12-31T02:31:26.251Z,21.15
2022-12-31T02:34:10.699Z,20.46
2022-12-31T02:36:43.014Z,20.61
2022-12-31T02:39:12.449Z,20.81
2022-12-31T02:41:52.384Z,20.38
2022-12-31T02:44:29.337Z,20.73
2022-12-31T02:47:04.996Z,20.32
2022-12-31T02:50:01.055Z,20.76
2022-12-31T02:52:52.697Z,21.22
2022-12-31T02:55:32.782Z,20.39
2022-12-31T02:58:51.334Z,20.33
2022-12-31T03:01:44.501Z,20.57
2022-12-31T03:04:32.577Z,21.02
2022-12-31T03:07:07.791Z,20.21
2022-12-31T03:09:35.405Z,20.43
2022-12-31T03:12:22.750Z,20.94
2022-12-31T03:14:49.961Z,20.66
2022-12-31T03:17:16.952Z,21.09
2022-12-31T03:20:03.163Z,21.33
2022-12-31T03:22:30.092Z,21.53
2022-12-31T03:25:22.740Z,21.42
2022-12-31T03:27:50.113Z,21.84
2022-12-31T03:30:18.441Z,22.13
2022-12-31T03:32:46.833Z,21.51
2022-12-31T03:38:03.516Z,21.38
2022-12-31T03:40:31.257Z,21.16
2022-12-31T03:42:57.984Z,21.58
2022-12-31T03:45:24.519Z,21.47
2022-12-31T03:47:51.295Z,21.26
2022-12-31T03:50:18.722Z,21.52
2022-12-31T03:52:46.018Z,21.14
2022-12-31T03:55:13.259Z,21.33
2022-12-31T03:57:40.139Z,21.21
2022-12-31T04:00:10.218Z,21.17
2022-12-31T04:02:37.213Z,21.23
2022-12-31T04:05:04.683Z,21.44
2022-12-31T04:07:31.317Z,20.94
2022-12-31T04:09:58.502Z,20.83
2022-12-31T04:12:25.908Z,21.06
2022-12-31T04:14:52.695Z,21.07
2022-12-31T04:17:19.846Z,21.03
2022-12-31T04:19:46.696Z,21.24
2022-12-31T04:22:13.538Z,21.21
2022-12-31T04:24:41.581Z,21.36
2022-12-31T04:27:08.491Z,21.58
2022-12-31T04:29:35.804Z,21.58
2022-12-31T04:32:03.301Z,21.60
2022-12-31T04:34:29.961Z,21.46
2022-12-31T04:36:56.644Z,21.87
2022-12-31T04:39:24.444Z,21.81
2022-12-31T04:41:51.002Z,22.27
2022-12-31T04:44:18.153Z,22.37
2022-12-31T04:46:44.679Z,21.87
2022-12-31T04:49:12.201Z,21.81
2022-12-31T04:51:39.477Z,22.26
2022-12-31T04:54:06.842Z,21.92
2022-12-31T04:56:36.560Z,22.00
2022-12-31T04:59:05.179Z,21.68
2022-12-31T05:01:33.289Z,21.64
2022-12-31T05:04:00.183Z,21.68
2022-12-31T05:06:26.737Z,21.37
2022-12-31T05:08:53.348Z,21.79
2022-12-31T05:11:19.858Z,21.89
2022-12-31T05:13:46.767Z,22.05
2022-12-31T05:16:13.446Z,22.13
2022-12-31T05:18:40.466Z,22.27
2022-12-31T05:21:07.269Z,21.96
2022-12-31T05:23:34.938Z,22.18
2022-12-31T05:26:01.843Z,22.21
2022-12-31T05:28:28.859Z,22.27
2022-12-31T05:30:55.627Z,22.29
2022-12-31T05:33:23.083Z,21.95
2022-12-31T05:35:50.506Z,21.89
2022-12-31T05:38:18.585Z,21.71
2022-12-31T05:40:45.231Z,21.95
2022-12-31T05:43:12.016Z,21.92
2022-12-31T05:45:39.422Z,22.20
2022-12-31T05:48:06.472Z,22.09
2022-12-31T05:50:33.021Z,21.96
2022-12-31T05:53:04.272Z,22.15
2022-12-31T05:55:30.949Z,22.07
2022-12-31T05:57:57.760Z,22.11
2022-12-31T06:00:24.283Z,22.14
2022-12-31T06:02:50.851Z,22.14
2022-12-31T06:05:22.454Z,21.95
2022-12-31T06:07:52.362Z,22.04
2022-12-31T06:10:18.874Z,21.91
2022-12-31T06:12:45.647Z,21.65
2022-12-31T06:15:12.238Z,21.54
2022-12-31T06:17:38.815Z,21.30
2022-12-31T06:20:12.182Z,20.81
2022-12-31T06:22:40.447Z,20.57
2022-12-31T06:25:07.397Z,20.59
2022-12-31T06:27:34.596Z,20.77
2022-12-31T06:30:01.099Z,20.68
2022-12-31T06:32:28.589Z,20.63
2022-12-31T06:34:55.178Z,20.83
2022-12-31T06:37:21.749Z,20.88
2022-12-31T06:39:48.799Z,20.82
2022-12-31T06:42:15.321Z,20.71
2022-12-31T06:44:41.828Z,20.83
2022-12-31T06:47:08.324Z,20.57
2022-12-31T06:49:34.904Z,20.48
2022-12-31T06:52:01.768Z,20.38
2022-12-31T06:54:28.846Z,20.09
2022-12-31T06:56:55.660Z,20.02
2022-12-31T06:59:27.937Z,19.74
2022-12-31T07:02:05.416Z,19.57
2022-12-31T07:04:49.624Z,19.76
2022-12-31T07:07:34.288Z,20.40
2022-12-31T07:10:18.029Z,19.59
2022-12-31T07:13:01.193Z,19.41
2022-12-31T07:15:51.710Z,19.47
2022-12-31T07:18:30.356Z,19.87
2022-12-31T07:20:59.384Z,20.33
2022-12-31T07:23:26.109Z,20.31
2022-12-31T07:26:06.752Z,20.45
2022-12-31T07:28:59.699Z,20.52
2022-12-31T07:31:42.201Z,20.52
2022-12-31T07:34:25.223Z,20.12
2022-12-31T07:37:06.274Z,19.95
2022-12-31T07:39:45.363Z,20.18
2022-12-31T07:42:11.851Z,20.28
2022-12-31T07:45:01.022Z,20.59
2022-12-31T07:47:29.540Z,20.67
2022-12-31T07:49:56.770Z,20.54
2022-12-31T07:52:23.698Z,20.74
2022-12-31T07:54:50.486Z,20.83
2022-12-31T07:57:18.888Z,20.88
2022-12-31T08:00:03.846Z,20.90
2022-12-31T08:02:56.390Z,20.42
2022-12-31T08:05:52.336Z,20.89
2022-12-31T08:08:28.065Z,20.25
2022-12-31T08:11:16.231Z,20.56
2022-12-31T08:13:43.805Z,20.53
2022-12-31T08:16:13.400Z,20.85
2022-12-31T08:18:40.874Z,20.81
2022-12-31T08:21:22.488Z,21.06
2022-12-31T08:24:24.806Z,21.12
2022-12-31T08:27:09.712Z,21.14
2022-12-31T08:29:49.732Z,20.95
2022-12-31T08:32:31.025Z,20.78
2022-12-31T08:35:06.691Z,20.79
2022-12-31T08:37:51.053Z,20.42
2022-12-31T08:40:46.015Z,20.91
2022-12-31T08:43:32.946Z,21.10
2022-12-31T08:46:00.254Z,21.01
2022-12-31T08:48:40.814Z,21.25
2022-12-31T08:51:14.600Z,20.73
2022-12-31T08:53:41.339Z,20.98
2022-12-31T08:56:21.508Z,21.04
2022-12-31T08:59:04.260Z,21.23
2022-12-31T09:01:44.332Z,21.64
2022-12-31T09:04:27.414Z,21.39
2022-12-31T09:07:02.024Z,21.55
2022-12-31T09:09:40.282Z,21.24
2022-12-31T09:12:25.827Z,21.70
2022-12-31T09:15:13.199Z,21.71
2022-12-31T09:17:44.338Z,21.67
2022-12-31T09:20:42.927Z,21.87
2022-12-31T09:23:12.748Z,21.53
2022-12-31T09:26:08.107Z,21.74
2022-12-31T09:28:56.574Z,21.17
2022-12-31T09:31:49.823Z,21.45
2022-12-31T09:34:26.240Z,21.39
2022-12-31T09:37:02.731Z,21.96
2022-12-31T09:39:40.508Z,22.41
2022-12-31T09:42:49.068Z,22.34
2022-12-31T09:45:42.405Z,22.64
2022-12-31T09:48:27.717Z,23.02
2022-12-31T09:51:26.049Z,23.07
2022-12-31T09:54:15.593Z,22.78
2022-12-31T09:57:08.556Z,22.79
2022-12-31T09:59:46.315Z,22.71
2022-12-31T10:02:33.212Z,22.23
2022-12-31T10:05:18.787Z,22.19
2022-12-31T10:08:01.226Z,21.77
2022-12-31T10:10:39.959Z,21.74
2022-12-31T10:13:43.577Z,21.37
2022-12-31T10:16:12.881Z,21.31
2022-12-31T10:18:57.299Z,21.46
2022-12-31T10:21:45.155Z,20.82
2022-12-31T10:24:36.618Z,21.57
2022-12-31T10:27:09.061Z,21.17
2022-12-31T10:29:48.015Z,21.23
2022-12-31T10:32:29.400Z,21.48
2022-12-31T10:35:38.662Z,20.87
2022-12-31T10:38:13.908Z,21.00
2022-12-31T10:41:14.309Z,20.91
2022-12-31T10:44:24.297Z,21.23
2022-12-31T10:47:11.915Z,21.57
2022-12-31T10:49:47.303Z,21.15
2022-12-31T10:52:52.824Z,21.28
2022-12-31T10:56:03.987Z,21.74
2022-12-31T10:58:56.089Z,21.59
2022-12-31T11:01:35.383Z,21.00
2022-12-31T11:04:31.614Z,21.54
2022-12-31T11:07:29.538Z,21.86
2022-12-31T11:10:33.952Z,21.14
2022-12-31T11:13:21.911Z,21.11
2022-12-31T11:16:10.129Z,21.27
2022-12-31T11:18:52.808Z,21.93
2022-12-31T11:21:29.522Z,21.75
2022-12-31T11:24:33.726Z,22.01
2022-12-31T11:27:28.580Z,22.27
2022-12-31T11:30:10.952Z,22.15
2022-12-31T11:32:57.071Z,22.00
2022-12-31T11:35:48.220Z,21.69
2022-12-31T11:38:26.120Z,21.47
2022-12-31T11:41:18.345Z,21.13
2022-12-31T11:44:13.125Z,21.65
2022-12-31T11:47:12.242Z,21.34
2022-12-31T11:50:03.507Z,21.75
2022-12-31T11:52:49.843Z,22.10
2022-12-31T11:55:27.055Z,22.26
2022-12-31T11:57:54.116Z,22.00
2022-12-31T12:00:23.594Z,22.10
2022-12-31T12:03:05.550Z,22.17
2022-12-31T12:05:35.057Z,21.72
2022-12-31T12:08:02.096Z,21.87
2022-12-31T12:10:36.585Z,21.87
2022-12-31T12:13:26.615Z,21.69
2022-12-31T12:15:58.469Z,21.68
2022-12-31T12:18:29.522Z,22.11
2022-12-31T12:21:12.030Z,21.72
2022-12-31T12:23:39.165Z,21.86
2022-12-31T12:26:07.076Z,21.70
2022-12-31T12:28:46.581Z,21.74
2022-12-31T12:31:20.774Z,22.08
2022-12-31T12:33:49.039Z,21.95
2022-12-31T12:36:18.674Z,22.31
2022-12-31T12:38:45.560Z,22.29
2022-12-31T12:41:23.418Z,22.07
2022-12-31T12:43:50.342Z,22.49
2022-12-31T12:46:48.283Z,22.45
2022-12-31T12:49:25.660Z,22.44
2022-12-31T12:52:02.972Z,22.61
2022-12-31T12:54:37.971Z,22.42
2022-12-31T12:57:20.587Z,22.79
2022-12-31T13:00:01.669Z,22.98
2022-12-31T13:02:55.536Z,21.97
2022-12-31T13:05:52.322Z,22.27
2022-12-31T13:08:34.831Z,21.95
2022-12-31T13:11:18.171Z,22.25
2022-12-31T13:14:10.748Z,22.39
2022-12-31T13:16:51.453Z,22.61
2022-12-31T13:19:37.983Z,22.53
2022-12-31T13:22:28.538Z,22.69
2022-12-31T13:25:02.828Z,22.66
2022-12-31T13:27:38.272Z,22.37
2022-12-31T13:30:19.433Z,22.45
2022-12-31T13:33:20.556Z,22.41
2022-12-31T13:35:54.887Z,21.42
2022-12-31T13:38:27.894Z,20.96
2022-12-31T13:40:57.113Z,21.28
2022-12-31T13:43:37.258Z,21.70
2022-12-31T13:46:26.450Z,22.25
2022-12-31T13:49:01.048Z,21.85
2022-12-31T13:52:00.337Z,22.41
2022-12-31T13:54:42.436Z,22.46
2022-12-31T13:57:20.228Z,22.46
2022-12-31T13:59:54.777Z,21.97
2022-12-31T14:02:27.368Z,22.44
2022-12-31T14:05:00.171Z,22.60
2022-12-31T14:07:40.376Z,22.56
2022-12-31T14:10:17.695Z,22.63
2022-12-31T14:12:56.068Z,22.67
2022-12-31T14:15:26.591Z,22.24
2022-12-31T14:18:10.896Z,22.34
2022-12-31T14:21:01.905Z,22.61
2022-12-31T14:23:42.997Z,22.15
2022-12-31T14:26:22.706Z,22.23
2022-12-31T14:29:08.680Z,22.14
2022-12-31T14:32:01.398Z,22.40
2022-12-31T14:34:49.841Z,22.72
2022-12-31T14:37:41.234Z,22.82
2022-12-31T14:40:32.556Z,22.61
2022-12-31T14:43:37.218Z,22.33
2022-12-31T14:46:10.517Z,22.46
2022-12-31T14:48:43.586Z,22.21
2022-12-31T14:51:13.051Z,22.13
2022-12-31T14:53:40.031Z,22.50
2022-12-31T14:56:26.922Z,22.38
2022-12-31T14:58:59.399Z,22.82
2022-12-31T15:01:26.387Z,22.55
2022-12-31T15:03:58.060Z,22.58
2022-12-31T15:06:24.651Z,22.81
2022-12-31T15:09:12.274Z,22.51
2022-12-31T15:12:14.903Z,22.17
2022-12-31T15:14:50.151Z,22.09
2022-12-31T15:17:38.144Z,22.86
2022-12-31T15:20:23.221Z,23.27
2022-12-31T15:22:51.991Z,23.25
2022-12-31T15:25:32.694Z,22.80
2022-12-31T15:28:06.933Z,22.83
2022-12-31T15:30:48.500Z,22.29
2022-12-31T15:33:30.811Z,22.29
2022-12-31T15:36:08.765Z,21.66
2022-12-31T15:38:37.997Z,22.09
2022-12-31T15:41:15.757Z,22.00
2022-12-31T15:43:54.772Z,22.07
2022-12-31T15:46:29.146Z,21.57
2022-12-31T15:49:05.793Z,21.55
2022-12-31T15:52:03.390Z,21.92
2022-12-31T15:54:40.923Z,21.37
2022-12-31T15:57:16.102Z,21.61
2022-12-31T15:59:43.718Z,21.74
2022-12-31T16:02:23.745Z,21.71
2022-12-31T16:04:51.838Z,21.66
2022-12-31T16:07:18.831Z,21.87
2022-12-31T16:09:55.084Z,22.10
2022-12-31T16:12:32.687Z,21.37
2022-12-31T16:15:01.745Z,21.60
2022-12-31T16:17:36.321Z,22.35
2022-12-31T16:20:23.577Z,21.96
2022-12-31T16:22:57.412Z,22.15
2022-12-31T16:25:33.401Z,22.49
2022-12-31T16:28:02.759Z,22.43
2022-12-31T16:30:32.423Z,22.52
2022-12-31T16:33:01.227Z,22.82
2022-12-31T16:35:36.216Z,22.40
2022-12-31T16:38:19.452Z,21.89
2022-12-31T16:41:01.519Z,22.79
2022-12-31T16:43:31.081Z,22.49
2022-12-31T16:46:07.228Z,22.73
2022-12-31T16:48:34.012Z,22.13
2022-12-31T16:51:01.208Z,21.95
2022-12-31T16:53:29.829Z,21.87
2022-12-31T16:56:01.849Z,21.98
2022-12-31T16:58:37.378Z,21.88
2022-12-31T17:01:13.146Z,22.68
2022-12-31T17:03:44.140Z,22.53
2022-12-31T17:06:18.781Z,22.06
2022-12-31T17:08:48.408Z,22.02
2022-12-31T17:11:34.709Z,22.33
2022-12-31T17:14:07.924Z,22.43
2022-12-31T17:16:37.366Z,22.49
2022-12-31T17:19:04.238Z,22.51
2022-12-31T17:21:32.107Z,22.59
2022-12-31T17:24:05.947Z,21.78
2022-12-31T17:26:36.019Z,22.11
2022-12-31T17:29:05.750Z,22.09
2022-12-31T17:31:37.791Z,21.38
2022-12-31T17:34:06.073Z,21.82
2022-12-31T17:36:32.739Z,22.08
2022-12-31T17:39:20.114Z,22.47
2022-12-31T17:41:49.367Z,22.71
2022-12-31T17:44:21.193Z,22.24
2022-12-31T17:46:49.862Z,22.15
2022-12-31T17:49:16.516Z,22.58
2022-12-31T17:51:47.509Z,22.56
2022-12-31T17:54:18.661Z,22.40
2022-12-31T17:59:17.452Z,22.77
2022-12-31T18:01:44.365Z,21.94
2022-12-31T18:04:13.101Z,22.53
2022-12-31T18:06:39.974Z,22.56
2022-12-31T18:09:06.776Z,22.18
2022-12-31T18:11:36.126Z,22.22
2022-12-31T18:14:03.584Z,22.29
2022-12-31T18:16:30.316Z,22.42
2022-12-31T18:18:59.507Z,22.46
2022-12-31T18:21:32.536Z,22.45
2022-12-31T18:26:26.474Z,21.98
2022-12-31T18:28:53.369Z,22.45
2022-12-31T18:31:23.048Z,23.16
2022-12-31T18:33:51.365Z,22.86
2022-12-31T18:36:20.035Z,22.99
2022-12-31T18:38:47.260Z,23.06
2022-12-31T18:41:17.930Z,22.64
2022-12-31T18:43:45.004Z,22.27
2022-12-31T18:46:18.020Z,22.52
2022-12-31T18:48:45.413Z,22.52
2022-12-31T18:51:19.842Z,22.49
2022-12-31T18:53:47.304Z,22.35
2022-12-31T18:56:16.035Z,21.97
2022-12-31T18:58:43.221Z,22.22
2022-12-31T19:01:25.259Z,22.34
2022-12-31T19:03:52.312Z,22.19
2022-12-31T19:06:18.845Z,21.88
2022-12-31T19:08:45.363Z,22.27
2022-12-31T19:11:14.346Z,22.66
2022-12-31T19:13:41.354Z,22.46
2022-12-31T19:16:09.631Z,22.25
2022-12-31T19:18:36.245Z,22.77
2022-12-31T19:21:03.701Z,22.45
2022-12-31T19:23:30.226Z,22.07
2022-12-31T19:25:56.744Z,22.33
2022-12-31T19:28:25.381Z,21.86
2022-12-31T19:30:52.721Z,21.84
2022-12-31T19:33:20.014Z,21.97
2022-12-31T19:35:46.816Z,21.87
2022-12-31T19:38:25.090Z,22.00
2022-12-31T19:40:53.322Z,21.91
2022-12-31T19:43:22.185Z,22.08
2022-12-31T19:45:50.283Z,22.32
2022-12-31T19:48:19.532Z,22.31
2022-12-31T19:50:49.289Z,22.35
2022-12-31T19:53:18.467Z,22.00
2022-12-31T19:55:45.111Z,21.85
2022-12-31T19:58:20.530Z,22.01
2022-12-31T20:00:55.669Z,21.90
2022-12-31T20:03:24.846Z,22.44
2022-12-31T20:05:51.520Z,22.11
2022-12-31T20:08:20.585Z,21.91
2022-12-31T20:10:47.192Z,21.79
2022-12-31T20:13:13.696Z,22.06
2022-12-31T20:15:47.437Z,21.89
2022-12-31T20:18:14.249Z,22.06
2022-12-31T20:20:49.209Z,22.34
2022-12-31T20:23:18.689Z,22.30
2022-12-31T20:25:56.514Z,22.45
2022-12-31T20:28:23.997Z,21.60
2022-12-31T20:30:51.640Z,22.08
2022-12-31T20:33:19.357Z,22.33
2022-12-31T20:35:46.454Z,22.08
2022-12-31T20:38:12.971Z,22.21
2022-12-31T20:40:46.181Z,22.20
2022-12-31T20:43:14.555Z,22.36
2022-12-31T20:45:41.674Z,22.74
2022-12-31T20:48:08.402Z,22.51
2022-12-31T20:50:35.182Z,22.65
2022-12-31T20:53:02.085Z,22.88
2022-12-31T20:55:30.657Z,22.70
2022-12-31T20:57:57.184Z,23.00
2022-12-31T21:00:23.881Z,22.76
2022-12-31T21:02:58.981Z,22.43
2022-12-31T21:05:30.929Z,22.17
2022-12-31T21:07:57.542Z,22.46
2022-12-31T21:10:24.098Z,22.80
2022-12-31T21:12:53.367Z,22.44
2022-12-31T21:15:21.488Z,22.52
2022-12-31T21:17:48.045Z,22.77
2022-12-31T21:20:14.544Z,22.06
2022-12-31T21:22:41.098Z,22.07
2022-12-31T21:25:08.147Z,22.45
2022-12-31T21:27:35.434Z,22.58
2022-12-31T21:30:18.136Z,22.59
2022-12-31T21:32:45.677Z,22.13
2022-12-31T21:35:41.582Z,22.15
2022-12-31T21:38:02.577Z,22.32
2022-12-31T21:40:29.900Z,22.34
2022-12-31T21:42:56.624Z,22.11
2022-12-31T21:45:23.627Z,21.98
2022-12-31T21:48:08.877Z,22.23
2022-12-31T21:50:35.419Z,22.49
2022-12-31T21:53:01.956Z,22.12
2022-12-31T21:55:47.746Z,22.27
2022-12-31T21:58:25.711Z,22.30
2022-12-31T22:01:12.359Z,22.47
2022-12-31T22:03:39.113Z,22.37
2022-12-31T22:06:13.763Z,22.41
2022-12-31T22:08:41.901Z,22.44
2022-12-31T22:11:10.155Z,22.49
2022-12-31T22:13:37.397Z,22.40
2022-12-31T22:16:06.080Z,22.45
2022-12-31T22:18:35.406Z,22.28
2022-12-31T22:21:18.913Z,21.84
2022-12-31T22:23:52.202Z,21.92
2022-12-31T22:26:22.090Z,22.43
2022-12-31T22:28:48.823Z,22.33
2022-12-31T22:31:18.867Z,22.23
2022-12-31T22:33:45.754Z,22.07
2022-12-31T22:36:14.784Z,22.41
2022-12-31T22:38:41.700Z,22.68
2022-12-31T22:41:14.455Z,22.74
2022-12-31T22:43:45.415Z,22.57
2022-12-31T22:46:24.463Z,22.59
2022-12-31T22:48:52.946Z,22.41
2022-12-31T22:51:20.495Z,22.53
2022-12-31T22:53:47.101Z,22.16
2022-12-31T22:56:17.629Z,22.38
2022-12-31T22:58:44.638Z,22.66
2022-12-31T23:01:23.762Z,21.89
2022-12-31T23:03:52.274Z,21.94
2022-12-31T23:06:20.803Z,21.95
2022-12-31T23:09:06.132Z,22.39
2022-12-31T23:11:35.060Z,22.15
2022-12-31T23:14:20.743Z,22.56
2022-12-31T23:17:30.188Z,22.21
2022-12-31T23:20:11.752Z,22.22
2022-12-31T23:22:56.953Z,22.72
2022-12-31T23:25:23.489Z,22.61
2022-12-31T23:27:49.993Z,22.55
2022-12-31T23:30:16.657Z,22.74
2022-12-31T23:32:43.150Z,22.62
2022-12-31T23:35:10.181Z,22.75
2022-12-31T23:37:36.925Z,22.84
2022-12-31T23:40:03.797Z,22.66
2022-12-31T23:42:30.361Z,22.63
2022-12-31T23:44:56.892Z,22.94
2022-12-31T23:47:23.397Z,22.62
2022-12-31T23:49:50.031Z,22.65
2022-12-31T23:52:16.567Z,22.57
2022-12-31T23:54:43.110Z,22.65
2022-12-31T23:57:09.977Z,22.23
2022-12-31T23:59:36.865Z,21.99
